sensor_id;sensor_type;location;lat;lon;timestamp;P1;durP1;ratioP1;P2;durP2;ratioP2
34369;SDS011;20635;55.812;37.560;2022-11-24T00:01:18;1.83;;;1.60;;
34369;SDS011;20635;55.812;37.560;2022-11-24T00:03:46;1.50;;;1.40;;
34369;SDS011;20635;55.812;37.560;2022-11-24T00:06:19;1.55;;;1.45;;
34369;SDS011;20635;55.812;37.560;2022-11-24T00:08:45;1.60;;;1.50;;
34369;SDS011;20635;55.812;37.560;2022-11-24T00:11:12;2.10;;;1.70;;
34369;SDS011;20635;55.812;37.560;2022-11-24T00:13:40;1.67;;;1.52;;
34369;SDS011;20635;55.812;37.560;2022-11-24T00:16:11;1.67;;;1.58;;
34369;SDS011;20635;55.812;37.560;2022-11-24T00:18:37;2.10;;;1.60;;
34369;SDS011;20635;55.812;37.560;2022-11-24T00:21:04;1.63;;;1.52;;
34369;SDS011;20635;55.812;37.560;2022-11-24T00:23:30;1.83;;;1.63;;
34369;SDS011;20635;55.812;37.560;2022-11-24T00:26:30;1.73;;;1.48;;
34369;SDS011;20635;55.812;37.560;2022-11-24T00:28:51;1.98;;;1.70;;
34369;SDS011;20635;55.812;37.560;2022-11-24T00:31:19;1.50;;;1.40;;
34369;SDS011;20635;55.812;37.560;2022-11-24T00:36:17;1.52;;;1.42;;
34369;SDS011;20635;55.812;37.560;2022-11-24T00:38:44;1.85;;;1.65;;
34369;SDS011;20635;55.812;37.560;2022-11-24T00:41:11;2.10;;;1.40;;
34369;SDS011;20635;55.812;37.560;2022-11-24T00:43:37;1.65;;;1.55;;
34369;SDS011;20635;55.812;37.560;2022-11-24T00:46:03;1.92;;;1.73;;
34369;SDS011;20635;55.812;37.560;2022-11-24T00:48:29;1.77;;;1.45;;
34369;SDS011;20635;55.812;37.560;2022-11-24T00:53:29;3.03;;;1.95;;
34369;SDS011;20635;55.812;37.560;2022-11-24T00:55:55;3.42;;;1.77;;
34369;SDS011;20635;55.812;37.560;2022-11-24T00:58:21;3.13;;;1.98;;
34369;SDS011;20635;55.812;37.560;2022-11-24T01:00:48;5.30;;;1.77;;
34369;SDS011;20635;55.812;37.560;2022-11-24T01:03:14;2.30;;;1.90;;
34369;SDS011;20635;55.812;37.560;2022-11-24T01:05:41;3.35;;;1.90;;
34369;SDS011;20635;55.812;37.560;2022-11-24T01:08:07;6.47;;;2.17;;
34369;SDS011;20635;55.812;37.560;2022-11-24T01:10:33;2.22;;;1.83;;
34369;SDS011;20635;55.812;37.560;2022-11-24T01:12:59;5.05;;;2.00;;
34369;SDS011;20635;55.812;37.560;2022-11-24T01:15:25;9.48;;;1.80;;
34369;SDS011;20635;55.812;37.560;2022-11-24T01:17:51;4.63;;;2.00;;
34369;SDS011;20635;55.812;37.560;2022-11-24T01:20:17;2.78;;;1.80;;
34369;SDS011;20635;55.812;37.560;2022-11-24T01:22:43;2.05;;;1.75;;
34369;SDS011;20635;55.812;37.560;2022-11-24T01:25:12;1.95;;;1.58;;
34369;SDS011;20635;55.812;37.560;2022-11-24T01:27:37;4.43;;;1.73;;
34369;SDS011;20635;55.812;37.560;2022-11-24T01:30:04;2.20;;;1.40;;
34369;SDS011;20635;55.812;37.560;2022-11-24T01:32:31;2.00;;;1.90;;
34369;SDS011;20635;55.812;37.560;2022-11-24T01:34:58;2.33;;;1.80;;
34369;SDS011;20635;55.812;37.560;2022-11-24T01:37:24;2.15;;;1.95;;
34369;SDS011;20635;55.812;37.560;2022-11-24T01:39:50;1.75;;;1.52;;
34369;SDS011;20635;55.812;37.560;2022-11-24T01:42:16;1.77;;;1.60;;
34369;SDS011;20635;55.812;37.560;2022-11-24T01:44:42;2.30;;;1.90;;
34369;SDS011;20635;55.812;37.560;2022-11-24T01:49:40;1.95;;;1.75;;
34369;SDS011;20635;55.812;37.560;2022-11-24T01:54:52;1.77;;;1.60;;
34369;SDS011;20635;55.812;37.560;2022-11-24T01:57:22;2.83;;;1.90;;
34369;SDS011;20635;55.812;37.560;2022-11-24T01:59:54;1.87;;;1.63;;
34369;SDS011;20635;55.812;37.560;2022-11-24T02:02:24;1.75;;;1.65;;
34369;SDS011;20635;55.812;37.560;2022-11-24T02:04:54;4.40;;;1.70;;
34369;SDS011;20635;55.812;37.560;2022-11-24T02:07:22;3.25;;;1.70;;
34369;SDS011;20635;55.812;37.560;2022-11-24T02:09:59;2.65;;;1.92;;
34369;SDS011;20635;55.812;37.560;2022-11-24T02:12:29;2.63;;;2.00;;
34369;SDS011;20635;55.812;37.560;2022-11-24T02:14:56;2.30;;;2.08;;
34369;SDS011;20635;55.812;37.560;2022-11-24T02:17:23;1.73;;;1.60;;
34369;SDS011;20635;55.812;37.560;2022-11-24T02:19:56;2.08;;;1.83;;
34369;SDS011;20635;55.812;37.560;2022-11-24T02:27:49;2.30;;;1.88;;
34369;SDS011;20635;55.812;37.560;2022-11-24T02:30:16;1.80;;;1.70;;
34369;SDS011;20635;55.812;37.560;2022-11-24T02:32:42;1.80;;;1.70;;
34369;SDS011;20635;55.812;37.560;2022-11-24T02:35:09;2.20;;;2.00;;
34369;SDS011;20635;55.812;37.560;2022-11-24T02:37:36;2.15;;;1.95;;
34369;SDS011;20635;55.812;37.560;2022-11-24T02:40:02;2.58;;;1.63;;
34369;SDS011;20635;55.812;37.560;2022-11-24T02:42:30;2.53;;;1.95;;
34369;SDS011;20635;55.812;37.560;2022-11-24T02:45:00;2.00;;;1.90;;
34369;SDS011;20635;55.812;37.560;2022-11-24T02:47:27;2.72;;;2.00;;
34369;SDS011;20635;55.812;37.560;2022-11-24T02:49:53;3.08;;;1.88;;
34369;SDS011;20635;55.812;37.560;2022-11-24T02:52:19;2.10;;;1.95;;
34369;SDS011;20635;55.812;37.560;2022-11-24T02:54:45;2.90;;;1.98;;
34369;SDS011;20635;55.812;37.560;2022-11-24T02:57:10;2.03;;;1.83;;
34369;SDS011;20635;55.812;37.560;2022-11-24T02:59:36;2.22;;;1.83;;
34369;SDS011;20635;55.812;37.560;2022-11-24T03:02:02;2.72;;;2.20;;
34369;SDS011;20635;55.812;37.560;2022-11-24T03:04:28;2.30;;;2.10;;
34369;SDS011;20635;55.812;37.560;2022-11-24T03:06:54;1.92;;;1.77;;
34369;SDS011;20635;55.812;37.560;2022-11-24T03:09:20;2.38;;;1.90;;
34369;SDS011;20635;55.812;37.560;2022-11-24T03:11:46;2.00;;;1.90;;
34369;SDS011;20635;55.812;37.560;2022-11-24T03:14:12;2.17;;;1.98;;
34369;SDS011;20635;55.812;37.560;2022-11-24T03:16:37;2.30;;;1.85;;
34369;SDS011;20635;55.812;37.560;2022-11-24T03:19:03;2.22;;;2.03;;
34369;SDS011;20635;55.812;37.560;2022-11-24T03:21:29;6.72;;;2.42;;
34369;SDS011;20635;55.812;37.560;2022-11-24T03:23:55;2.13;;;1.92;;
34369;SDS011;20635;55.812;37.560;2022-11-24T03:26:22;2.92;;;1.75;;
34369;SDS011;20635;55.812;37.560;2022-11-24T03:28:49;2.00;;;1.80;;
34369;SDS011;20635;55.812;37.560;2022-11-24T03:31:17;2.78;;;1.95;;
34369;SDS011;20635;55.812;37.560;2022-11-24T03:33:43;2.45;;;2.10;;
34369;SDS011;20635;55.812;37.560;2022-11-24T03:36:09;4.20;;;2.10;;
34369;SDS011;20635;55.812;37.560;2022-11-24T03:38:35;3.45;;;2.10;;
34369;SDS011;20635;55.812;37.560;2022-11-24T03:41:01;2.78;;;2.38;;
34369;SDS011;20635;55.812;37.560;2022-11-24T03:43:27;3.72;;;2.58;;
34369;SDS011;20635;55.812;37.560;2022-11-24T03:45:53;2.70;;;2.50;;
34369;SDS011;20635;55.812;37.560;2022-11-24T03:48:19;2.63;;;2.42;;
34369;SDS011;20635;55.812;37.560;2022-11-24T03:50:55;2.85;;;2.60;;
34369;SDS011;20635;55.812;37.560;2022-11-24T03:53:23;2.85;;;2.50;;
34369;SDS011;20635;55.812;37.560;2022-11-24T03:55:51;3.47;;;2.70;;
34369;SDS011;20635;55.812;37.560;2022-11-24T03:58:17;2.97;;;2.58;;
34369;SDS011;20635;55.812;37.560;2022-11-24T04:00:44;3.00;;;2.70;;
34369;SDS011;20635;55.812;37.560;2022-11-24T04:03:10;3.55;;;2.30;;
34369;SDS011;20635;55.812;37.560;2022-11-24T04:05:36;3.05;;;2.75;;
34369;SDS011;20635;55.812;37.560;2022-11-24T04:08:02;2.70;;;2.50;;
34369;SDS011;20635;55.812;37.560;2022-11-24T04:10:30;5.57;;;2.50;;
34369;SDS011;20635;55.812;37.560;2022-11-24T04:12:58;5.30;;;2.60;;
34369;SDS011;20635;55.812;37.560;2022-11-24T04:15:24;3.20;;;2.90;;
34369;SDS011;20635;55.812;37.560;2022-11-24T04:17:50;3.30;;;2.95;;
34369;SDS011;20635;55.812;37.560;2022-11-24T04:20:18;4.82;;;2.83;;
34369;SDS011;20635;55.812;37.560;2022-11-24T04:22:44;4.03;;;3.30;;
34369;SDS011;20635;55.812;37.560;2022-11-24T04:25:10;3.97;;;3.60;;
34369;SDS011;20635;55.812;37.560;2022-11-24T04:27:36;4.32;;;3.17;;
34369;SDS011;20635;55.812;37.560;2022-11-24T04:30:03;3.42;;;3.13;;
34369;SDS011;20635;55.812;37.560;2022-11-24T04:32:30;3.85;;;3.45;;
34369;SDS011;20635;55.812;37.560;2022-11-24T04:34:56;3.42;;;3.13;;
34369;SDS011;20635;55.812;37.560;2022-11-24T04:37:22;5.50;;;3.55;;
34369;SDS011;20635;55.812;37.560;2022-11-24T04:39:48;4.93;;;3.38;;
34369;SDS011;20635;55.812;37.560;2022-11-24T04:42:14;4.70;;;3.90;;
34369;SDS011;20635;55.812;37.560;2022-11-24T04:44:40;4.05;;;3.60;;
34369;SDS011;20635;55.812;37.560;2022-11-24T04:47:06;3.95;;;3.47;;
34369;SDS011;20635;55.812;37.560;2022-11-24T04:49:31;4.15;;;3.42;;
34369;SDS011;20635;55.812;37.560;2022-11-24T04:51:57;3.90;;;3.33;;
34369;SDS011;20635;55.812;37.560;2022-11-24T04:54:23;3.92;;;3.28;;
34369;SDS011;20635;55.812;37.560;2022-11-24T04:56:50;3.80;;;3.20;;
34369;SDS011;20635;55.812;37.560;2022-11-24T04:59:16;4.70;;;3.60;;
34369;SDS011;20635;55.812;37.560;2022-11-24T05:01:44;3.40;;;3.00;;
34369;SDS011;20635;55.812;37.560;2022-11-24T05:04:11;3.45;;;3.10;;
34369;SDS011;20635;55.812;37.560;2022-11-24T05:06:39;4.72;;;3.50;;
34369;SDS011;20635;55.812;37.560;2022-11-24T05:09:05;4.70;;;3.88;;
34369;SDS011;20635;55.812;37.560;2022-11-24T05:11:32;4.38;;;3.25;;
34369;SDS011;20635;55.812;37.560;2022-11-24T05:13:59;3.83;;;3.53;;
34369;SDS011;20635;55.812;37.560;2022-11-24T05:16:26;3.22;;;2.92;;
34369;SDS011;20635;55.812;37.560;2022-11-24T05:18:52;2.97;;;2.70;;
34369;SDS011;20635;55.812;37.560;2022-11-24T05:21:17;3.58;;;3.20;;
34369;SDS011;20635;55.812;37.560;2022-11-24T05:23:43;3.17;;;2.75;;
34369;SDS011;20635;55.812;37.560;2022-11-24T05:26:09;3.55;;;3.25;;
34369;SDS011;20635;55.812;37.560;2022-11-24T05:28:35;3.42;;;3.13;;
34369;SDS011;20635;55.812;37.560;2022-11-24T05:31:01;3.35;;;3.05;;
34369;SDS011;20635;55.812;37.560;2022-11-24T05:33:28;3.45;;;3.15;;
34369;SDS011;20635;55.812;37.560;2022-11-24T05:35:58;3.67;;;2.92;;
34369;SDS011;20635;55.812;37.560;2022-11-24T05:38:26;2.90;;;2.60;;
34369;SDS011;20635;55.812;37.560;2022-11-24T05:40:51;3.42;;;3.13;;
34369;SDS011;20635;55.812;37.560;2022-11-24T05:43:17;3.30;;;2.97;;
34369;SDS011;20635;55.812;37.560;2022-11-24T05:45:43;3.33;;;2.85;;
34369;SDS011;20635;55.812;37.560;2022-11-24T05:48:11;2.90;;;2.70;;
34369;SDS011;20635;55.812;37.560;2022-11-24T05:50:38;3.72;;;2.92;;
34369;SDS011;20635;55.812;37.560;2022-11-24T05:53:05;3.30;;;3.00;;
34369;SDS011;20635;55.812;37.560;2022-11-24T05:55:36;2.83;;;2.63;;
34369;SDS011;20635;55.812;37.560;2022-11-24T05:58:03;3.20;;;2.83;;
34369;SDS011;20635;55.812;37.560;2022-11-24T06:00:32;3.75;;;3.28;;
34369;SDS011;20635;55.812;37.560;2022-11-24T06:02:59;4.18;;;3.33;;
34369;SDS011;20635;55.812;37.560;2022-11-24T06:05:26;3.13;;;2.60;;
34369;SDS011;20635;55.812;37.560;2022-11-24T06:07:53;2.70;;;2.50;;
34369;SDS011;20635;55.812;37.560;2022-11-24T06:10:20;3.25;;;2.25;;
34369;SDS011;20635;55.812;37.560;2022-11-24T06:12:48;3.10;;;2.80;;
34369;SDS011;20635;55.812;37.560;2022-11-24T06:15:14;3.33;;;2.85;;
34369;SDS011;20635;55.812;37.560;2022-11-24T06:17:40;2.35;;;2.15;;
34369;SDS011;20635;55.812;37.560;2022-11-24T06:20:06;8.82;;;3.42;;
34369;SDS011;20635;55.812;37.560;2022-11-24T06:22:34;6.03;;;3.25;;
34369;SDS011;20635;55.812;37.560;2022-11-24T06:25:00;4.07;;;3.67;;
34369;SDS011;20635;55.812;37.560;2022-11-24T06:27:25;4.22;;;3.40;;
34369;SDS011;20635;55.812;37.560;2022-11-24T06:29:51;4.03;;;3.58;;
34369;SDS011;20635;55.812;37.560;2022-11-24T06:32:18;4.00;;;3.63;;
34369;SDS011;20635;55.812;37.560;2022-11-24T06:34:43;3.55;;;3.25;;
34369;SDS011;20635;55.812;37.560;2022-11-24T06:37:10;7.53;;;3.72;;
34369;SDS011;20635;55.812;37.560;2022-11-24T06:39:35;3.88;;;3.28;;
34369;SDS011;20635;55.812;37.560;2022-11-24T06:42:01;3.83;;;3.53;;
34369;SDS011;20635;55.812;37.560;2022-11-24T06:44:27;5.40;;;3.92;;
34369;SDS011;20635;55.812;37.560;2022-11-24T06:46:53;4.45;;;3.83;;
34369;SDS011;20635;55.812;37.560;2022-11-24T06:49:19;4.22;;;3.72;;
34369;SDS011;20635;55.812;37.560;2022-11-24T06:51:45;8.07;;;3.55;;
34369;SDS011;20635;55.812;37.560;2022-11-24T06:54:15;3.90;;;3.53;;
34369;SDS011;20635;55.812;37.560;2022-11-24T06:56:45;4.18;;;3.70;;
34369;SDS011;20635;55.812;37.560;2022-11-24T06:59:18;5.07;;;3.95;;
34369;SDS011;20635;55.812;37.560;2022-11-24T07:01:45;4.38;;;3.97;;
34369;SDS011;20635;55.812;37.560;2022-11-24T07:04:11;5.32;;;3.90;;
34369;SDS011;20635;55.812;37.560;2022-11-24T07:06:37;5.53;;;4.22;;
34369;SDS011;20635;55.812;37.560;2022-11-24T07:09:05;5.00;;;3.90;;
34369;SDS011;20635;55.812;37.560;2022-11-24T07:11:32;4.18;;;3.78;;
34369;SDS011;20635;55.812;37.560;2022-11-24T07:13:59;4.60;;;4.05;;
34369;SDS011;20635;55.812;37.560;2022-11-24T07:16:25;4.13;;;3.72;;
34369;SDS011;20635;55.812;37.560;2022-11-24T07:18:52;4.95;;;4.05;;
34369;SDS011;20635;55.812;37.560;2022-11-24T07:21:19;4.05;;;3.58;;
34369;SDS011;20635;55.812;37.560;2022-11-24T07:23:47;4.22;;;3.30;;
34369;SDS011;20635;55.812;37.560;2022-11-24T07:26:16;4.63;;;4.03;;
34369;SDS011;20635;55.812;37.560;2022-11-24T07:28:43;4.88;;;4.38;;
34369;SDS011;20635;55.812;37.560;2022-11-24T07:31:10;4.03;;;3.65;;
34369;SDS011;20635;55.812;37.560;2022-11-24T07:33:38;4.40;;;3.50;;
34369;SDS011;20635;55.812;37.560;2022-11-24T07:36:05;4.40;;;4.00;;
34369;SDS011;20635;55.812;37.560;2022-11-24T07:38:32;3.90;;;3.60;;
34369;SDS011;20635;55.812;37.560;2022-11-24T07:41:01;3.63;;;3.33;;
34369;SDS011;20635;55.812;37.560;2022-11-24T07:43:29;4.00;;;3.60;;
34369;SDS011;20635;55.812;37.560;2022-11-24T07:45:57;3.58;;;3.28;;
34369;SDS011;20635;55.812;37.560;2022-11-24T07:48:23;5.20;;;3.33;;
34369;SDS011;20635;55.812;37.560;2022-11-24T07:50:49;4.07;;;3.67;;
34369;SDS011;20635;55.812;37.560;2022-11-24T07:53:15;3.70;;;3.40;;
34369;SDS011;20635;55.812;37.560;2022-11-24T07:55:41;4.57;;;4.00;;
34369;SDS011;20635;55.812;37.560;2022-11-24T07:58:07;4.60;;;4.20;;
34369;SDS011;20635;55.812;37.560;2022-11-24T08:00:33;4.32;;;3.92;;
34369;SDS011;20635;55.812;37.560;2022-11-24T08:02:58;3.83;;;3.30;;
34369;SDS011;20635;55.812;37.560;2022-11-24T08:05:24;4.05;;;3.75;;
34369;SDS011;20635;55.812;37.560;2022-11-24T08:07:50;4.10;;;3.65;;
34369;SDS011;20635;55.812;37.560;2022-11-24T08:10:16;4.32;;;3.38;;
34369;SDS011;20635;55.812;37.560;2022-11-24T08:12:42;4.00;;;3.28;;
34369;SDS011;20635;55.812;37.560;2022-11-24T08:15:08;3.42;;;3.10;;
34369;SDS011;20635;55.812;37.560;2022-11-24T08:17:35;4.30;;;3.90;;
34369;SDS011;20635;55.812;37.560;2022-11-24T08:20:01;4.68;;;3.85;;
34369;SDS011;20635;55.812;37.560;2022-11-24T08:22:27;3.92;;;3.53;;
34369;SDS011;20635;55.812;37.560;2022-11-24T08:24:53;4.70;;;3.55;;
34369;SDS011;20635;55.812;37.560;2022-11-24T08:27:19;3.33;;;3.03;;
34369;SDS011;20635;55.812;37.560;2022-11-24T08:29:45;4.13;;;3.72;;
34369;SDS011;20635;55.812;37.560;2022-11-24T08:32:11;3.95;;;3.55;;
34369;SDS011;20635;55.812;37.560;2022-11-24T08:34:37;3.95;;;3.55;;
34369;SDS011;20635;55.812;37.560;2022-11-24T08:37:03;6.75;;;4.50;;
34369;SDS011;20635;55.812;37.560;2022-11-24T08:39:30;4.20;;;3.80;;
34369;SDS011;20635;55.812;37.560;2022-11-24T08:41:56;3.80;;;3.40;;
34369;SDS011;20635;55.812;37.560;2022-11-24T08:44:22;4.30;;;3.65;;
34369;SDS011;20635;55.812;37.560;2022-11-24T08:46:48;5.15;;;4.18;;
34369;SDS011;20635;55.812;37.560;2022-11-24T08:49:14;4.70;;;3.92;;
34369;SDS011;20635;55.812;37.560;2022-11-24T08:51:41;4.97;;;4.00;;
34369;SDS011;20635;55.812;37.560;2022-11-24T08:54:07;4.47;;;3.90;;
34369;SDS011;20635;55.812;37.560;2022-11-24T08:56:37;4.55;;;3.70;;
34369;SDS011;20635;55.812;37.560;2022-11-24T08:59:03;4.30;;;3.67;;
34369;SDS011;20635;55.812;37.560;2022-11-24T09:01:29;6.50;;;3.78;;
34369;SDS011;20635;55.812;37.560;2022-11-24T09:03:55;5.13;;;4.03;;
34369;SDS011;20635;55.812;37.560;2022-11-24T09:06:22;4.70;;;3.90;;
34369;SDS011;20635;55.812;37.560;2022-11-24T09:08:55;6.55;;;3.42;;
34369;SDS011;20635;55.812;37.560;2022-11-24T09:11:22;4.47;;;3.65;;
34369;SDS011;20635;55.812;37.560;2022-11-24T09:13:49;5.25;;;4.03;;
34369;SDS011;20635;55.812;37.560;2022-11-24T09:16:16;4.15;;;3.75;;
34369;SDS011;20635;55.812;37.560;2022-11-24T09:18:43;4.40;;;3.92;;
34369;SDS011;20635;55.812;37.560;2022-11-24T09:23:40;4.10;;;3.70;;
34369;SDS011;20635;55.812;37.560;2022-11-24T09:26:10;4.47;;;3.88;;
34369;SDS011;20635;55.812;37.560;2022-11-24T09:28:38;5.00;;;4.50;;
34369;SDS011;20635;55.812;37.560;2022-11-24T09:31:05;5.15;;;4.63;;
34369;SDS011;20635;55.812;37.560;2022-11-24T09:33:32;5.07;;;4.47;;
34369;SDS011;20635;55.812;37.560;2022-11-24T09:36:00;4.95;;;4.03;;
34369;SDS011;20635;55.812;37.560;2022-11-24T09:38:26;4.88;;;4.35;;
34369;SDS011;20635;55.812;37.560;2022-11-24T09:40:53;4.35;;;3.95;;
34369;SDS011;20635;55.812;37.560;2022-11-24T09:48:53;4.63;;;4.10;;
34369;SDS011;20635;55.812;37.560;2022-11-24T09:51:23;4.68;;;3.92;;
34369;SDS011;20635;55.812;37.560;2022-11-24T09:56:22;7.47;;;4.13;;
34369;SDS011;20635;55.812;37.560;2022-11-24T10:03:54;6.82;;;4.70;;
34369;SDS011;20635;55.812;37.560;2022-11-24T10:17:05;4.38;;;3.97;;
34369;SDS011;20635;55.812;37.560;2022-11-24T10:19:48;6.10;;;4.47;;
34369;SDS011;20635;55.812;37.560;2022-11-24T10:25:20;4.97;;;4.45;;
34369;SDS011;20635;55.812;37.560;2022-11-24T10:27:48;5.20;;;4.40;;
34369;SDS011;20635;55.812;37.560;2022-11-24T10:30:20;6.28;;;4.82;;
34369;SDS011;20635;55.812;37.560;2022-11-24T10:32:48;5.43;;;4.70;;
34369;SDS011;20635;55.812;37.560;2022-11-24T10:35:28;5.97;;;5.38;;
34369;SDS011;20635;55.812;37.560;2022-11-24T10:40:47;7.28;;;5.15;;
34369;SDS011;20635;55.812;37.560;2022-11-24T10:43:17;6.13;;;5.20;;
34369;SDS011;20635;55.812;37.560;2022-11-24T10:45:43;6.15;;;5.30;;
34369;SDS011;20635;55.812;37.560;2022-11-24T10:50:46;6.45;;;5.18;;
34369;SDS011;20635;55.812;37.560;2022-11-24T10:53:28;6.53;;;5.57;;
34369;SDS011;20635;55.812;37.560;2022-11-24T10:58:27;5.78;;;4.93;;
34369;SDS011;20635;55.812;37.560;2022-11-24T11:04:15;7.22;;;5.65;;
34369;SDS011;20635;55.812;37.560;2022-11-24T11:06:42;6.82;;;5.40;;
34369;SDS011;20635;55.812;37.560;2022-11-24T11:11:34;7.30;;;5.57;;
34369;SDS011;20635;55.812;37.560;2022-11-24T11:14:04;6.05;;;5.30;;
34369;SDS011;20635;55.812;37.560;2022-11-24T11:16:33;5.45;;;4.88;;
34369;SDS011;20635;55.812;37.560;2022-11-24T11:22:12;6.80;;;5.22;;
34369;SDS011;20635;55.812;37.560;2022-11-24T11:24:44;8.18;;;5.15;;
34369;SDS011;20635;55.812;37.560;2022-11-24T11:29:42;6.53;;;5.10;;
34369;SDS011;20635;55.812;37.560;2022-11-24T11:32:24;5.88;;;5.35;;
34369;SDS011;20635;55.812;37.560;2022-11-24T11:34:53;6.32;;;5.72;;
34369;SDS011;20635;55.812;37.560;2022-11-24T11:37:24;7.18;;;6.45;;
34369;SDS011;20635;55.812;37.560;2022-11-24T11:39:54;6.75;;;5.57;;
34369;SDS011;20635;55.812;37.560;2022-11-24T11:42:32;8.25;;;5.93;;
34369;SDS011;20635;55.812;37.560;2022-11-24T11:45:16;6.88;;;6.10;;
34369;SDS011;20635;55.812;37.560;2022-11-24T11:47:52;6.60;;;5.75;;
34369;SDS011;20635;55.812;37.560;2022-11-24T11:50:28;6.35;;;5.63;;
34369;SDS011;20635;55.812;37.560;2022-11-24T11:53:20;6.78;;;6.07;;
34369;SDS011;20635;55.812;37.560;2022-11-24T11:56:30;6.82;;;5.68;;
34369;SDS011;20635;55.812;37.560;2022-11-24T12:09:46;7.93;;;6.47;;
34369;SDS011;20635;55.812;37.560;2022-11-24T12:23:17;6.90;;;6.20;;
34369;SDS011;20635;55.812;37.560;2022-11-24T12:25:56;8.40;;;7.00;;
34369;SDS011;20635;55.812;37.560;2022-11-24T12:28:36;7.60;;;6.55;;
34369;SDS011;20635;55.812;37.560;2022-11-24T12:31:34;7.28;;;6.57;;
34369;SDS011;20635;55.812;37.560;2022-11-24T12:37:20;7.75;;;6.38;;
34369;SDS011;20635;55.812;37.560;2022-11-24T12:40:02;6.78;;;6.05;;
34369;SDS011;20635;55.812;37.560;2022-11-24T12:45:13;7.13;;;5.97;;
34369;SDS011;20635;55.812;37.560;2022-11-24T12:47:46;7.00;;;6.20;;
34369;SDS011;20635;55.812;37.560;2022-11-24T12:50:35;6.80;;;6.10;;
34369;SDS011;20635;55.812;37.560;2022-11-24T12:53:04;7.28;;;6.25;;
34369;SDS011;20635;55.812;37.560;2022-11-24T12:55:32;8.05;;;5.90;;
34369;SDS011;20635;55.812;37.560;2022-11-24T13:03:29;6.72;;;5.80;;
34369;SDS011;20635;55.812;37.560;2022-11-24T13:06:08;8.18;;;6.28;;
34369;SDS011;20635;55.812;37.560;2022-11-24T13:08:36;9.13;;;5.97;;
34369;SDS011;20635;55.812;37.560;2022-11-24T13:16:31;7.43;;;5.70;;
34369;SDS011;20635;55.812;37.560;2022-11-24T13:18:58;6.82;;;5.18;;
34369;SDS011;20635;55.812;37.560;2022-11-24T13:24:04;7.68;;;5.00;;
34369;SDS011;20635;55.812;37.560;2022-11-24T13:26:45;6.25;;;5.20;;
34369;SDS011;20635;55.812;37.560;2022-11-24T13:29:33;6.18;;;4.85;;
34369;SDS011;20635;55.812;37.560;2022-11-24T13:39:57;5.80;;;4.55;;
34369;SDS011;20635;55.812;37.560;2022-11-24T13:42:25;6.88;;;4.90;;
34369;SDS011;20635;55.812;37.560;2022-11-24T13:44:55;7.60;;;5.03;;
34369;SDS011;20635;55.812;37.560;2022-11-24T13:49:57;6.70;;;4.60;;
34369;SDS011;20635;55.812;37.560;2022-11-24T14:02:48;5.85;;;5.00;;
34369;SDS011;20635;55.812;37.560;2022-11-24T14:05:16;5.90;;;5.13;;
34369;SDS011;20635;55.812;37.560;2022-11-24T14:07:44;5.20;;;4.68;;
34369;SDS011;20635;55.812;37.560;2022-11-24T14:10:17;6.03;;;4.68;;
34369;SDS011;20635;55.812;37.560;2022-11-24T14:13:14;5.45;;;4.50;;
34369;SDS011;20635;55.812;37.560;2022-11-24T14:16:02;5.45;;;4.45;;
34369;SDS011;20635;55.812;37.560;2022-11-24T14:18:35;5.75;;;4.88;;
34369;SDS011;20635;55.812;37.560;2022-11-24T14:23:59;5.07;;;4.50;;
34369;SDS011;20635;55.812;37.560;2022-11-24T14:26:39;4.97;;;4.45;;
34369;SDS011;20635;55.812;37.560;2022-11-24T14:31:41;8.85;;;4.95;;
34369;SDS011;20635;55.812;37.560;2022-11-24T14:36:37;6.97;;;4.80;;
34369;SDS011;20635;55.812;37.560;2022-11-24T14:39:03;7.70;;;4.88;;
34369;SDS011;20635;55.812;37.560;2022-11-24T14:41:30;7.18;;;4.70;;
34369;SDS011;20635;55.812;37.560;2022-11-24T14:46:49;5.63;;;4.40;;
34369;SDS011;20635;55.812;37.560;2022-11-24T14:49:24;5.95;;;4.63;;
34369;SDS011;20635;55.812;37.560;2022-11-24T14:51:53;4.22;;;3.83;;
34369;SDS011;20635;55.812;37.560;2022-11-24T14:54:34;5.97;;;4.70;;
34369;SDS011;20635;55.812;37.560;2022-11-24T14:57:23;5.43;;;4.18;;
34369;SDS011;20635;55.812;37.560;2022-11-24T15:02:50;5.72;;;4.07;;
34369;SDS011;20635;55.812;37.560;2022-11-24T15:05:23;4.82;;;3.75;;
34369;SDS011;20635;55.812;37.560;2022-11-24T15:07:50;4.40;;;3.92;;
34369;SDS011;20635;55.812;37.560;2022-11-24T15:13:02;4.25;;;3.85;;
34369;SDS011;20635;55.812;37.560;2022-11-24T15:15:44;4.00;;;3.60;;
34369;SDS011;20635;55.812;37.560;2022-11-24T15:18:23;4.78;;;3.40;;
34369;SDS011;20635;55.812;37.560;2022-11-24T15:20:55;5.00;;;4.00;;
34369;SDS011;20635;55.812;37.560;2022-11-24T15:23:25;6.50;;;4.07;;
34369;SDS011;20635;55.812;37.560;2022-11-24T15:25:55;4.40;;;3.78;;
34369;SDS011;20635;55.812;37.560;2022-11-24T15:28:28;4.57;;;3.47;;
34369;SDS011;20635;55.812;37.560;2022-11-24T15:33:24;4.60;;;3.58;;
34369;SDS011;20635;55.812;37.560;2022-11-24T15:35:50;5.07;;;4.00;;
34369;SDS011;20635;55.812;37.560;2022-11-24T15:38:16;4.90;;;3.72;;
34369;SDS011;20635;55.812;37.560;2022-11-24T15:40:44;3.95;;;3.55;;
34369;SDS011;20635;55.812;37.560;2022-11-24T15:45:37;4.10;;;3.33;;
34369;SDS011;20635;55.812;37.560;2022-11-24T15:48:03;4.30;;;3.70;;
34369;SDS011;20635;55.812;37.560;2022-11-24T15:50:29;6.13;;;4.00;;
34369;SDS011;20635;55.812;37.560;2022-11-24T15:52:54;5.28;;;4.00;;
34369;SDS011;20635;55.812;37.560;2022-11-24T15:55:22;4.72;;;3.47;;
34369;SDS011;20635;55.812;37.560;2022-11-24T15:57:47;4.30;;;3.60;;
34369;SDS011;20635;55.812;37.560;2022-11-24T16:00:18;4.35;;;3.53;;
34369;SDS011;20635;55.812;37.560;2022-11-24T16:02:45;4.30;;;3.78;;
34369;SDS011;20635;55.812;37.560;2022-11-24T16:05:11;5.38;;;3.50;;
34369;SDS011;20635;55.812;37.560;2022-11-24T16:07:38;4.72;;;3.65;;
34369;SDS011;20635;55.812;37.560;2022-11-24T16:10:04;3.95;;;3.38;;
34369;SDS011;20635;55.812;37.560;2022-11-24T16:12:32;4.50;;;3.50;;
34369;SDS011;20635;55.812;37.560;2022-11-24T16:14:58;4.68;;;3.35;;
34369;SDS011;20635;55.812;37.560;2022-11-24T16:17:23;3.88;;;3.47;;
34369;SDS011;20635;55.812;37.560;2022-11-24T16:19:49;4.55;;;3.15;;
34369;SDS011;20635;55.812;37.560;2022-11-24T16:22:15;3.78;;;3.40;;
34369;SDS011;20635;55.812;37.560;2022-11-24T16:24:41;3.92;;;3.30;;
34369;SDS011;20635;55.812;37.560;2022-11-24T16:27:06;3.40;;;3.10;;
34369;SDS011;20635;55.812;37.560;2022-11-24T16:29:32;4.13;;;3.35;;
34369;SDS011;20635;55.812;37.560;2022-11-24T16:31:58;4.13;;;3.60;;
34369;SDS011;20635;55.812;37.560;2022-11-24T16:34:24;4.70;;;3.80;;
34369;SDS011;20635;55.812;37.560;2022-11-24T16:36:50;4.75;;;3.65;;
34369;SDS011;20635;55.812;37.560;2022-11-24T16:39:16;3.67;;;3.33;;
34369;SDS011;20635;55.812;37.560;2022-11-24T16:41:41;3.65;;;3.30;;
34369;SDS011;20635;55.812;37.560;2022-11-24T16:44:07;4.82;;;3.33;;
34369;SDS011;20635;55.812;37.560;2022-11-24T16:46:33;3.92;;;3.30;;
34369;SDS011;20635;55.812;37.560;2022-11-24T16:48:59;3.60;;;3.17;;
34369;SDS011;20635;55.812;37.560;2022-11-24T16:51:25;3.95;;;3.58;;
34369;SDS011;20635;55.812;37.560;2022-11-24T16:53:58;3.65;;;3.00;;
34369;SDS011;20635;55.812;37.560;2022-11-24T16:56:29;3.83;;;3.38;;
34369;SDS011;20635;55.812;37.560;2022-11-24T16:58:55;4.45;;;2.97;;
34369;SDS011;20635;55.812;37.560;2022-11-24T17:01:21;3.63;;;2.80;;
34369;SDS011;20635;55.812;37.560;2022-11-24T17:03:47;3.50;;;3.08;;
34369;SDS011;20635;55.812;37.560;2022-11-24T17:06:14;3.78;;;3.45;;
34369;SDS011;20635;55.812;37.560;2022-11-24T17:08:40;5.78;;;3.00;;